Glasgo, Connecticut
Current Conditions -  °F | °C
As of 9:53 PM on Saturday 20 Dec 2014 (Local Time) from KWST Reporting Station
Overcast Overcast  
Wind Chill: 28°   Ceiling: 5500
Heat Index: 34°   Visibility: 10mi
Dew Point: 28°   Wind: 7mph
Humidity: 79%   Direction: 20°NNE
Pressure: 30.27"   Gusts: NA
Location:  41.56°N, 71.89°W
Report Text: KWST 210253Z AUTO 02006KT 10SM OVC055 01/M02 A3027 RMK AO2 SLP250 T00111022 53001
Loading
Personal Weather Stations






























Interactive Weather Map New forecast layout! Learn more

10-Day Weather Forecast

Advertisements
Track Severe Weather on mobile